sensor_id;sensor_type;location;lat;lon;timestamp;temperature;humidity
52181;DHT22;38158;53.338;6.514;2023-09-18T00:01:40;16.10;99.90
52181;DHT22;38158;53.338;6.514;2023-09-18T00:04:06;16.20;99.90
52181;DHT22;38158;53.338;6.514;2023-09-18T00:06:32;16.20;99.90
52181;DHT22;38158;53.338;6.514;2023-09-18T00:08:58;16.20;99.90
52181;DHT22;38158;53.338;6.514;2023-09-18T00:11:24;16.20;99.90
52181;DHT22;38158;53.338;6.514;2023-09-18T00:13:50;16.20;99.90
52181;DHT22;38158;53.338;6.514;2023-09-18T00:16:15;16.20;99.90
52181;DHT22;38158;53.338;6.514;2023-09-18T00:18:41;16.30;99.90
52181;DHT22;38158;53.338;6.514;2023-09-18T00:21:08;16.20;99.90
52181;DHT22;38158;53.338;6.514;2023-09-18T00:23:36;16.10;99.90
52181;DHT22;38158;53.338;6.514;2023-09-18T00:26:02;16.00;99.90
52181;DHT22;38158;53.338;6.514;2023-09-18T00:28:27;15.70;99.90
52181;DHT22;38158;53.338;6.514;2023-09-18T00:30:53;15.40;99.90
52181;DHT22;38158;53.338;6.514;2023-09-18T00:33:19;15.30;99.90
52181;DHT22;38158;53.338;6.514;2023-09-18T00:35:49;15.30;99.90
52181;DHT22;38158;53.338;6.514;2023-09-18T00:38:15;15.30;99.90
52181;DHT22;38158;53.338;6.514;2023-09-18T00:40:40;15.30;99.90
52181;DHT22;38158;53.338;6.514;2023-09-18T00:43:07;15.40;99.90
52181;DHT22;38158;53.338;6.514;2023-09-18T00:45:34;15.50;99.90
52181;DHT22;38158;53.338;6.514;2023-09-18T00:48:02;15.50;99.90
52181;DHT22;38158;53.338;6.514;2023-09-18T00:50:28;15.60;99.90
52181;DHT22;38158;53.338;6.514;2023-09-18T00:52:54;15.60;99.90
52181;DHT22;38158;53.338;6.514;2023-09-18T00:55:19;15.70;99.90
52181;DHT22;38158;53.338;6.514;2023-09-18T00:57:45;15.70;99.90
52181;DHT22;38158;53.338;6.514;2023-09-18T01:00:12;15.80;99.90
52181;DHT22;38158;53.338;6.514;2023-09-18T01:02:42;15.80;99.90
52181;DHT22;38158;53.338;6.514;2023-09-18T01:05:08;15.80;99.90
52181;DHT22;38158;53.338;6.514;2023-09-18T01:07:34;15.90;99.90
52181;DHT22;38158;53.338;6.514;2023-09-18T01:10:00;15.90;99.90
52181;DHT22;38158;53.338;6.514;2023-09-18T01:12:44;15.90;99.90
52181;DHT22;38158;53.338;6.514;2023-09-18T01:15:22;15.90;99.90
52181;DHT22;38158;53.338;6.514;2023-09-18T01:17:52;16.00;99.90
52181;DHT22;38158;53.338;6.514;2023-09-18T01:20:18;16.00;99.90
52181;DHT22;38158;53.338;6.514;2023-09-18T01:22:44;16.10;99.90
52181;DHT22;38158;53.338;6.514;2023-09-18T01:25:09;16.10;99.90
52181;DHT22;38158;53.338;6.514;2023-09-18T01:27:35;16.10;99.90
52181;DHT22;38158;53.338;6.514;2023-09-18T01:30:01;16.10;99.90
52181;DHT22;38158;53.338;6.514;2023-09-18T01:32:30;16.20;99.90
52181;DHT22;38158;53.338;6.514;2023-09-18T01:34:59;16.30;99.90
52181;DHT22;38158;53.338;6.514;2023-09-18T01:37:27;16.40;99.90
52181;DHT22;38158;53.338;6.514;2023-09-18T01:39:54;16.40;99.90
52181;DHT22;38158;53.338;6.514;2023-09-18T01:42:25;16.40;99.90
52181;DHT22;38158;53.338;6.514;2023-09-18T01:44:52;16.40;99.90
52181;DHT22;38158;53.338;6.514;2023-09-18T01:47:19;16.30;99.90
52181;DHT22;38158;53.338;6.514;2023-09-18T01:49:47;16.30;99.90
52181;DHT22;38158;53.338;6.514;2023-09-18T01:52:13;16.30;99.90
52181;DHT22;38158;53.338;6.514;2023-09-18T01:54:38;16.30;99.90
52181;DHT22;38158;53.338;6.514;2023-09-18T01:57:05;16.40;99.90
52181;DHT22;38158;53.338;6.514;2023-09-18T01:59:33;16.40;99.90
52181;DHT22;38158;53.338;6.514;2023-09-18T02:01:59;16.30;99.90
52181;DHT22;38158;53.338;6.514;2023-09-18T02:04:25;16.30;99.90
52181;DHT22;38158;53.338;6.514;2023-09-18T02:06:52;16.30;99.90
52181;DHT22;38158;53.338;6.514;2023-09-18T02:09:18;16.20;99.90
52181;DHT22;38158;53.338;6.514;2023-09-18T02:11:45;16.20;99.90
52181;DHT22;38158;53.338;6.514;2023-09-18T02:14:11;16.20;99.90
52181;DHT22;38158;53.338;6.514;2023-09-18T02:16:40;16.30;99.90
52181;DHT22;38158;53.338;6.514;2023-09-18T02:19:09;16.30;99.90
52181;DHT22;38158;53.338;6.514;2023-09-18T02:21:35;16.30;99.90
52181;DHT22;38158;53.338;6.514;2023-09-18T02:24:01;16.30;99.90
52181;DHT22;38158;53.338;6.514;2023-09-18T02:26:27;16.40;99.90
52181;DHT22;38158;53.338;6.514;2023-09-18T02:28:54;16.30;99.90
52181;DHT22;38158;53.338;6.514;2023-09-18T02:31:20;16.30;99.90
52181;DHT22;38158;53.338;6.514;2023-09-18T02:33:47;16.30;99.90
52181;DHT22;38158;53.338;6.514;2023-09-18T02:36:13;16.30;99.90
52181;DHT22;38158;53.338;6.514;2023-09-18T02:38:39;16.40;99.90
52181;DHT22;38158;53.338;6.514;2023-09-18T02:41:05;16.40;99.90
52181;DHT22;38158;53.338;6.514;2023-09-18T02:43:30;16.40;99.90
52181;DHT22;38158;53.338;6.514;2023-09-18T02:45:56;16.40;99.90
52181;DHT22;38158;53.338;6.514;2023-09-18T02:48:22;16.40;99.90
52181;DHT22;38158;53.338;6.514;2023-09-18T02:50:48;16.40;99.90
52181;DHT22;38158;53.338;6.514;2023-09-18T02:53:24;16.40;99.90
52181;DHT22;38158;53.338;6.514;2023-09-18T02:55:52;16.40;99.90
52181;DHT22;38158;53.338;6.514;2023-09-18T02:58:18;16.40;99.90
52181;DHT22;38158;53.338;6.514;2023-09-18T03:00:46;16.40;99.90
52181;DHT22;38158;53.338;6.514;2023-09-18T03:03:13;16.50;99.90
52181;DHT22;38158;53.338;6.514;2023-09-18T03:05:40;16.50;99.90
52181;DHT22;38158;53.338;6.514;2023-09-18T03:08:06;16.50;99.90
52181;DHT22;38158;53.338;6.514;2023-09-18T03:10:36;16.50;99.90
52181;DHT22;38158;53.338;6.514;2023-09-18T03:13:02;16.50;99.90
52181;DHT22;38158;53.338;6.514;2023-09-18T03:15:28;16.50;99.90
52181;DHT22;38158;53.338;6.514;2023-09-18T03:17:55;16.50;99.90
52181;DHT22;38158;53.338;6.514;2023-09-18T03:20:28;16.50;99.90
52181;DHT22;38158;53.338;6.514;2023-09-18T03:22:55;16.50;99.90
52181;DHT22;38158;53.338;6.514;2023-09-18T03:25:21;16.50;99.90
52181;DHT22;38158;53.338;6.514;2023-09-18T03:27:52;16.60;99.90
52181;DHT22;38158;53.338;6.514;2023-09-18T03:30:19;16.60;99.90
52181;DHT22;38158;53.338;6.514;2023-09-18T03:32:45;16.60;99.90
52181;DHT22;38158;53.338;6.514;2023-09-18T03:35:13;16.60;99.90
52181;DHT22;38158;53.338;6.514;2023-09-18T03:37:46;16.60;99.90
52181;DHT22;38158;53.338;6.514;2023-09-18T03:40:12;16.60;99.90
52181;DHT22;38158;53.338;6.514;2023-09-18T03:42:38;16.60;99.90
52181;DHT22;38158;53.338;6.514;2023-09-18T03:45:07;16.60;99.90
52181;DHT22;38158;53.338;6.514;2023-09-18T03:47:37;16.70;99.90
52181;DHT22;38158;53.338;6.514;2023-09-18T03:50:06;16.70;99.90
52181;DHT22;38158;53.338;6.514;2023-09-18T03:52:31;16.60;99.90
52181;DHT22;38158;53.338;6.514;2023-09-18T03:54:57;16.60;99.90
52181;DHT22;38158;53.338;6.514;2023-09-18T03:57:23;16.60;99.90
52181;DHT22;38158;53.338;6.514;2023-09-18T03:59:49;16.60;99.90
52181;DHT22;38158;53.338;6.514;2023-09-18T04:02:14;16.60;99.90
52181;DHT22;38158;53.338;6.514;2023-09-18T04:04:40;16.70;99.90
52181;DHT22;38158;53.338;6.514;2023-09-18T04:07:06;16.70;99.90
52181;DHT22;38158;53.338;6.514;2023-09-18T04:09:32;16.70;99.90
52181;DHT22;38158;53.338;6.514;2023-09-18T04:12:03;16.70;99.90
52181;DHT22;38158;53.338;6.514;2023-09-18T04:14:31;16.70;99.90
52181;DHT22;38158;53.338;6.514;2023-09-18T04:16:57;16.70;99.90
52181;DHT22;38158;53.338;6.514;2023-09-18T04:19:23;16.70;99.90
52181;DHT22;38158;53.338;6.514;2023-09-18T04:21:49;16.70;99.90
52181;DHT22;38158;53.338;6.514;2023-09-18T04:24:14;16.70;99.90
52181;DHT22;38158;53.338;6.514;2023-09-18T04:26:40;16.70;99.90
52181;DHT22;38158;53.338;6.514;2023-09-18T04:29:06;16.70;99.90
52181;DHT22;38158;53.338;6.514;2023-09-18T04:31:32;16.70;99.90
52181;DHT22;38158;53.338;6.514;2023-09-18T04:33:58;16.70;99.90
52181;DHT22;38158;53.338;6.514;2023-09-18T04:36:23;16.70;99.90
52181;DHT22;38158;53.338;6.514;2023-09-18T04:38:50;16.70;99.90
52181;DHT22;38158;53.338;6.514;2023-09-18T04:41:16;16.70;99.90
52181;DHT22;38158;53.338;6.514;2023-09-18T04:43:42;16.70;99.90
52181;DHT22;38158;53.338;6.514;2023-09-18T04:46:10;16.70;99.90
52181;DHT22;38158;53.338;6.514;2023-09-18T04:48:36;16.70;99.90
52181;DHT22;38158;53.338;6.514;2023-09-18T04:51:03;16.70;99.90
52181;DHT22;38158;53.338;6.514;2023-09-18T04:53:30;16.70;99.90
52181;DHT22;38158;53.338;6.514;2023-09-18T04:55:56;16.70;99.90
52181;DHT22;38158;53.338;6.514;2023-09-18T04:58:22;16.70;99.90
52181;DHT22;38158;53.338;6.514;2023-09-18T05:00:58;16.70;99.90
52181;DHT22;38158;53.338;6.514;2023-09-18T05:03:23;16.70;99.90
52181;DHT22;38158;53.338;6.514;2023-09-18T05:05:49;16.70;99.90
52181;DHT22;38158;53.338;6.514;2023-09-18T05:08:15;16.80;99.90
52181;DHT22;38158;53.338;6.514;2023-09-18T05:10:41;16.80;99.90
52181;DHT22;38158;53.338;6.514;2023-09-18T05:13:07;16.80;99.90
52181;DHT22;38158;53.338;6.514;2023-09-18T05:15:34;16.80;99.90
52181;DHT22;38158;53.338;6.514;2023-09-18T05:18:00;16.80;99.90
52181;DHT22;38158;53.338;6.514;2023-09-18T05:20:27;16.80;99.90
52181;DHT22;38158;53.338;6.514;2023-09-18T05:22:54;16.80;99.90
52181;DHT22;38158;53.338;6.514;2023-09-18T05:25:21;16.90;99.90
52181;DHT22;38158;53.338;6.514;2023-09-18T05:27:48;16.90;99.90
52181;DHT22;38158;53.338;6.514;2023-09-18T05:30:17;16.90;99.90
52181;DHT22;38158;53.338;6.514;2023-09-18T05:32:43;16.90;99.90
52181;DHT22;38158;53.338;6.514;2023-09-18T05:35:09;16.90;99.90
52181;DHT22;38158;53.338;6.514;2023-09-18T05:37:37;16.90;99.90
52181;DHT22;38158;53.338;6.514;2023-09-18T05:40:08;17.00;99.90
52181;DHT22;38158;53.338;6.514;2023-09-18T05:42:41;17.00;99.90
52181;DHT22;38158;53.338;6.514;2023-09-18T05:45:14;17.00;99.90
52181;DHT22;38158;53.338;6.514;2023-09-18T05:47:42;17.00;99.90
52181;DHT22;38158;53.338;6.514;2023-09-18T05:50:09;17.00;99.90
52181;DHT22;38158;53.338;6.514;2023-09-18T05:52:40;17.10;99.90
52181;DHT22;38158;53.338;6.514;2023-09-18T05:55:06;17.10;99.90
52181;DHT22;38158;53.338;6.514;2023-09-18T05:57:35;17.10;99.90
52181;DHT22;38158;53.338;6.514;2023-09-18T06:00:01;17.20;99.90
52181;DHT22;38158;53.338;6.514;2023-09-18T06:02:27;17.20;99.90
52181;DHT22;38158;53.338;6.514;2023-09-18T06:04:56;17.20;99.90
52181;DHT22;38158;53.338;6.514;2023-09-18T06:07:24;17.20;99.90
52181;DHT22;38158;53.338;6.514;2023-09-18T06:09:50;17.20;99.90
52181;DHT22;38158;53.338;6.514;2023-09-18T06:12:16;17.20;99.90
52181;DHT22;38158;53.338;6.514;2023-09-18T06:14:41;17.30;99.90
52181;DHT22;38158;53.338;6.514;2023-09-18T06:17:08;17.30;99.90
52181;DHT22;38158;53.338;6.514;2023-09-18T06:19:35;17.30;99.90
52181;DHT22;38158;53.338;6.514;2023-09-18T06:22:01;17.30;99.90
52181;DHT22;38158;53.338;6.514;2023-09-18T06:24:27;17.40;99.90
52181;DHT22;38158;53.338;6.514;2023-09-18T06:26:53;17.40;99.90
52181;DHT22;38158;53.338;6.514;2023-09-18T06:29:19;17.40;99.90
52181;DHT22;38158;53.338;6.514;2023-09-18T06:31:45;17.40;99.90
52181;DHT22;38158;53.338;6.514;2023-09-18T06:34:11;17.40;99.90
52181;DHT22;38158;53.338;6.514;2023-09-18T06:36:37;17.50;99.90
52181;DHT22;38158;53.338;6.514;2023-09-18T06:39:03;17.60;99.90
52181;DHT22;38158;53.338;6.514;2023-09-18T06:41:29;17.60;99.90
52181;DHT22;38158;53.338;6.514;2023-09-18T06:43:54;17.70;99.90
52181;DHT22;38158;53.338;6.514;2023-09-18T06:46:20;17.70;99.90
52181;DHT22;38158;53.338;6.514;2023-09-18T06:48:45;17.70;99.90
52181;DHT22;38158;53.338;6.514;2023-09-18T06:51:15;17.80;99.90
52181;DHT22;38158;53.338;6.514;2023-09-18T06:53:42;17.80;99.90
52181;DHT22;38158;53.338;6.514;2023-09-18T06:56:08;17.90;99.90
52181;DHT22;38158;53.338;6.514;2023-09-18T06:58:35;17.90;99.90
52181;DHT22;38158;53.338;6.514;2023-09-18T07:01:00;17.90;99.90
52181;DHT22;38158;53.338;6.514;2023-09-18T07:03:26;17.90;99.90
52181;DHT22;38158;53.338;6.514;2023-09-18T07:05:52;18.00;99.90
52181;DHT22;38158;53.338;6.514;2023-09-18T07:08:17;18.00;99.90
52181;DHT22;38158;53.338;6.514;2023-09-18T07:10:49;18.00;99.90
52181;DHT22;38158;53.338;6.514;2023-09-18T07:13:15;18.00;99.90
52181;DHT22;38158;53.338;6.514;2023-09-18T07:15:41;18.00;99.90
52181;DHT22;38158;53.338;6.514;2023-09-18T07:18:07;18.00;99.90
52181;DHT22;38158;53.338;6.514;2023-09-18T07:20:32;18.00;99.90
52181;DHT22;38158;53.338;6.514;2023-09-18T07:22:58;18.00;99.90
52181;DHT22;38158;53.338;6.514;2023-09-18T07:25:24;18.00;99.90
52181;DHT22;38158;53.338;6.514;2023-09-18T07:27:49;18.00;99.90
52181;DHT22;38158;53.338;6.514;2023-09-18T07:30:15;18.00;99.90
52181;DHT22;38158;53.338;6.514;2023-09-18T07:32:46;18.00;99.90
52181;DHT22;38158;53.338;6.514;2023-09-18T07:35:12;18.10;99.90
52181;DHT22;38158;53.338;6.514;2023-09-18T07:37:40;18.10;99.90
52181;DHT22;38158;53.338;6.514;2023-09-18T07:40:06;18.00;99.90
52181;DHT22;38158;53.338;6.514;2023-09-18T07:42:32;18.10;99.90
52181;DHT22;38158;53.338;6.514;2023-09-18T07:44:59;18.00;99.90
52181;DHT22;38158;53.338;6.514;2023-09-18T07:47:24;18.00;99.90
52181;DHT22;38158;53.338;6.514;2023-09-18T07:49:50;18.00;99.90
52181;DHT22;38158;53.338;6.514;2023-09-18T07:52:17;18.00;99.90
52181;DHT22;38158;53.338;6.514;2023-09-18T07:54:43;18.00;99.90
52181;DHT22;38158;53.338;6.514;2023-09-18T07:57:09;18.00;99.90
52181;DHT22;38158;53.338;6.514;2023-09-18T07:59:38;18.00;99.90
52181;DHT22;38158;53.338;6.514;2023-09-18T08:02:07;18.00;99.90
52181;DHT22;38158;53.338;6.514;2023-09-18T08:04:34;18.00;99.90
52181;DHT22;38158;53.338;6.514;2023-09-18T08:07:00;17.90;99.90
52181;DHT22;38158;53.338;6.514;2023-09-18T08:09:26;18.00;99.90
52181;DHT22;38158;53.338;6.514;2023-09-18T08:11:55;18.00;99.90
52181;DHT22;38158;53.338;6.514;2023-09-18T08:14:22;18.00;99.90
52181;DHT22;38158;53.338;6.514;2023-09-18T08:16:47;18.00;99.90
52181;DHT22;38158;53.338;6.514;2023-09-18T08:19:16;17.90;99.90
52181;DHT22;38158;53.338;6.514;2023-09-18T08:21:45;18.00;99.90
52181;DHT22;38158;53.338;6.514;2023-09-18T08:24:11;18.00;99.90
52181;DHT22;38158;53.338;6.514;2023-09-18T08:26:37;18.00;99.90
52181;DHT22;38158;53.338;6.514;2023-09-18T08:29:03;18.00;99.90
52181;DHT22;38158;53.338;6.514;2023-09-18T08:31:29;18.00;99.90
52181;DHT22;38158;53.338;6.514;2023-09-18T08:33:57;18.00;99.90
52181;DHT22;38158;53.338;6.514;2023-09-18T08:36:23;18.00;99.90
52181;DHT22;38158;53.338;6.514;2023-09-18T08:38:49;18.00;99.90
52181;DHT22;38158;53.338;6.514;2023-09-18T08:41:18;18.10;99.90
52181;DHT22;38158;53.338;6.514;2023-09-18T08:43:45;18.10;99.90
52181;DHT22;38158;53.338;6.514;2023-09-18T08:46:11;18.10;99.90
52181;DHT22;38158;53.338;6.514;2023-09-18T08:48:37;18.10;99.90
52181;DHT22;38158;53.338;6.514;2023-09-18T08:51:05;18.00;99.90
52181;DHT22;38158;53.338;6.514;2023-09-18T08:53:32;18.10;99.90
52181;DHT22;38158;53.338;6.514;2023-09-18T08:55:59;18.10;99.90
52181;DHT22;38158;53.338;6.514;2023-09-18T08:58:28;18.00;99.90
52181;DHT22;38158;53.338;6.514;2023-09-18T09:00:58;18.10;99.90
52181;DHT22;38158;53.338;6.514;2023-09-18T09:03:26;18.10;99.90
52181;DHT22;38158;53.338;6.514;2023-09-18T09:05:52;18.10;99.90
52181;DHT22;38158;53.338;6.514;2023-09-18T09:08:18;18.20;99.90
52181;DHT22;38158;53.338;6.514;2023-09-18T09:10:43;18.20;99.90
52181;DHT22;38158;53.338;6.514;2023-09-18T09:13:09;18.30;99.90
52181;DHT22;38158;53.338;6.514;2023-09-18T09:15:45;18.30;99.90
52181;DHT22;38158;53.338;6.514;2023-09-18T09:18:12;18.30;99.90
52181;DHT22;38158;53.338;6.514;2023-09-18T09:20:40;18.30;99.90
52181;DHT22;38158;53.338;6.514;2023-09-18T09:23:09;18.30;99.90
52181;DHT22;38158;53.338;6.514;2023-09-18T09:25:35;18.40;99.90
52181;DHT22;38158;53.338;6.514;2023-09-18T09:28:06;18.40;99.90
52181;DHT22;38158;53.338;6.514;2023-09-18T09:30:34;18.40;99.90
52181;DHT22;38158;53.338;6.514;2023-09-18T09:33:02;18.50;99.90
52181;DHT22;38158;53.338;6.514;2023-09-18T09:35:33;18.50;99.90
52181;DHT22;38158;53.338;6.514;2023-09-18T09:38:09;18.60;99.90
52181;DHT22;38158;53.338;6.514;2023-09-18T09:40:36;18.60;99.90
52181;DHT22;38158;53.338;6.514;2023-09-18T09:43:03;18.60;99.90
52181;DHT22;38158;53.338;6.514;2023-09-18T09:45:33;18.60;99.90
52181;DHT22;38158;53.338;6.514;2023-09-18T09:48:03;18.70;99.90
52181;DHT22;38158;53.338;6.514;2023-09-18T09:50:31;18.70;99.90
52181;DHT22;38158;53.338;6.514;2023-09-18T09:52:57;18.80;99.90
52181;DHT22;38158;53.338;6.514;2023-09-18T09:55:29;18.80;99.90
52181;DHT22;38158;53.338;6.514;2023-09-18T09:57:57;18.80;99.90
52181;DHT22;38158;53.338;6.514;2023-09-18T10:00:47;18.80;99.90
52181;DHT22;38158;53.338;6.514;2023-09-18T10:03:20;18.80;99.90
52181;DHT22;38158;53.338;6.514;2023-09-18T10:05:49;18.90;99.90
52181;DHT22;38158;53.338;6.514;2023-09-18T10:08:26;18.90;99.90
52181;DHT22;38158;53.338;6.514;2023-09-18T10:10:55;18.90;99.90
52181;DHT22;38158;53.338;6.514;2023-09-18T10:13:29;19.00;99.90
52181;DHT22;38158;53.338;6.514;2023-09-18T10:15:58;19.00;99.90
52181;DHT22;38158;53.338;6.514;2023-09-18T10:18:40;19.10;99.90
52181;DHT22;38158;53.338;6.514;2023-09-18T10:21:29;19.20;99.90
52181;DHT22;38158;53.338;6.514;2023-09-18T10:26:45;19.40;99.90
52181;DHT22;38158;53.338;6.514;2023-09-18T10:29:14;19.40;99.90
52181;DHT22;38158;53.338;6.514;2023-09-18T10:31:43;19.50;99.90
52181;DHT22;38158;53.338;6.514;2023-09-18T10:34:10;19.50;99.90
52181;DHT22;38158;53.338;6.514;2023-09-18T10:36:40;19.60;99.90
52181;DHT22;38158;53.338;6.514;2023-09-18T10:39:08;19.60;99.90
52181;DHT22;38158;53.338;6.514;2023-09-18T10:41:36;19.60;99.90
52181;DHT22;38158;53.338;6.514;2023-09-18T10:44:04;19.70;99.90
52181;DHT22;38158;53.338;6.514;2023-09-18T10:46:30;19.80;99.90
52181;DHT22;38158;53.338;6.514;2023-09-18T10:48:59;19.90;99.90
52181;DHT22;38158;53.338;6.514;2023-09-18T10:51:26;20.00;99.90
52181;DHT22;38158;53.338;6.514;2023-09-18T10:53:52;20.10;99.90
52181;DHT22;38158;53.338;6.514;2023-09-18T10:56:21;20.30;99.90
52181;DHT22;38158;53.338;6.514;2023-09-18T10:58:56;20.40;99.90
52181;DHT22;38158;53.338;6.514;2023-09-18T11:01:25;20.50;99.90
52181;DHT22;38158;53.338;6.514;2023-09-18T11:03:53;20.70;99.90
52181;DHT22;38158;53.338;6.514;2023-09-18T11:06:22;20.70;99.90
52181;DHT22;38158;53.338;6.514;2023-09-18T11:09:02;20.70;99.90
52181;DHT22;38158;53.338;6.514;2023-09-18T11:11:30;20.80;99.90
52181;DHT22;38158;53.338;6.514;2023-09-18T11:13:57;20.80;99.90
52181;DHT22;38158;53.338;6.514;2023-09-18T11:18:52;20.90;99.90
52181;DHT22;38158;53.338;6.514;2023-09-18T11:21:30;20.90;99.90
52181;DHT22;38158;53.338;6.514;2023-09-18T11:23:59;21.00;99.90
52181;DHT22;38158;53.338;6.514;2023-09-18T11:26:29;21.10;99.90
52181;DHT22;38158;53.338;6.514;2023-09-18T11:28:55;21.20;99.90
52181;DHT22;38158;53.338;6.514;2023-09-18T11:31:45;21.30;99.90
52181;DHT22;38158;53.338;6.514;2023-09-18T11:34:32;21.30;99.90
52181;DHT22;38158;53.338;6.514;2023-09-18T11:36:59;21.40;99.90
52181;DHT22;38158;53.338;6.514;2023-09-18T11:39:34;21.50;99.90
52181;DHT22;38158;53.338;6.514;2023-09-18T11:42:08;21.60;99.90
52181;DHT22;38158;53.338;6.514;2023-09-18T11:44:34;21.50;99.90
52181;DHT22;38158;53.338;6.514;2023-09-18T11:47:02;21.40;99.90
52181;DHT22;38158;53.338;6.514;2023-09-18T11:49:29;21.50;99.90
52181;DHT22;38158;53.338;6.514;2023-09-18T11:52:00;21.50;99.90
52181;DHT22;38158;53.338;6.514;2023-09-18T11:54:28;21.60;99.90
52181;DHT22;38158;53.338;6.514;2023-09-18T11:56:54;21.70;99.90
52181;DHT22;38158;53.338;6.514;2023-09-18T11:59:40;21.80;99.90
52181;DHT22;38158;53.338;6.514;2023-09-18T12:02:08;21.90;99.90
52181;DHT22;38158;53.338;6.514;2023-09-18T12:04:36;21.80;99.90
52181;DHT22;38158;53.338;6.514;2023-09-18T12:07:04;21.80;99.90
52181;DHT22;38158;53.338;6.514;2023-09-18T12:09:31;21.80;99.90
52181;DHT22;38158;53.338;6.514;2023-09-18T12:11:58;21.80;99.90
52181;DHT22;38158;53.338;6.514;2023-09-18T12:14:23;21.70;99.90
52181;DHT22;38158;53.338;6.514;2023-09-18T12:16:50;21.60;99.90
52181;DHT22;38158;53.338;6.514;2023-09-18T12:19:19;21.40;99.90
52181;DHT22;38158;53.338;6.514;2023-09-18T12:21:48;21.30;99.90
52181;DHT22;38158;53.338;6.514;2023-09-18T12:24:24;21.30;99.90
52181;DHT22;38158;53.338;6.514;2023-09-18T12:26:54;21.50;99.90
52181;DHT22;38158;53.338;6.514;2023-09-18T12:29:20;21.60;99.90
52181;DHT22;38158;53.338;6.514;2023-09-18T12:31:46;21.60;99.90
52181;DHT22;38158;53.338;6.514;2023-09-18T12:34:19;21.70;99.90
52181;DHT22;38158;53.338;6.514;2023-09-18T12:36:47;21.70;99.90
52181;DHT22;38158;53.338;6.514;2023-09-18T12:39:17;21.70;99.90
52181;DHT22;38158;53.338;6.514;2023-09-18T12:41:43;21.60;99.90
52181;DHT22;38158;53.338;6.514;2023-09-18T12:44:09;21.50;99.90
52181;DHT22;38158;53.338;6.514;2023-09-18T12:46:36;21.40;99.90
52181;DHT22;38158;53.338;6.514;2023-09-18T12:49:35;21.30;99.90
52181;DHT22;38158;53.338;6.514;2023-09-18T12:52:02;21.20;99.90
52181;DHT22;38158;53.338;6.514;2023-09-18T12:54:40;21.10;99.90
52181;DHT22;38158;53.338;6.514;2023-09-18T12:57:07;21.00;99.90
52181;DHT22;38158;53.338;6.514;2023-09-18T12:59:34;21.00;99.90
52181;DHT22;38158;53.338;6.514;2023-09-18T13:02:05;21.10;99.90
52181;DHT22;38158;53.338;6.514;2023-09-18T13:04:35;21.30;99.90
52181;DHT22;38158;53.338;6.514;2023-09-18T13:07:28;21.40;99.90
52181;DHT22;38158;53.338;6.514;2023-09-18T13:10:05;21.60;99.90
52181;DHT22;38158;53.338;6.514;2023-09-18T13:12:51;21.50;99.90
52181;DHT22;38158;53.338;6.514;2023-09-18T13:15:33;21.40;99.90
52181;DHT22;38158;53.338;6.514;2023-09-18T13:18:00;21.30;99.90
52181;DHT22;38158;53.338;6.514;2023-09-18T13:20:29;21.20;99.90
52181;DHT22;38158;53.338;6.514;2023-09-18T13:22:57;21.20;99.90
52181;DHT22;38158;53.338;6.514;2023-09-18T13:25:27;21.10;99.90
52181;DHT22;38158;53.338;6.514;2023-09-18T13:27:54;21.10;99.90
52181;DHT22;38158;53.338;6.514;2023-09-18T13:30:20;21.20;99.90
52181;DHT22;38158;53.338;6.514;2023-09-18T13:32:49;21.20;99.90
52181;DHT22;38158;53.338;6.514;2023-09-18T13:35:16;21.30;99.90
52181;DHT22;38158;53.338;6.514;2023-09-18T13:37:42;21.20;99.90
52181;DHT22;38158;53.338;6.514;2023-09-18T13:40:08;21.30;99.90
52181;DHT22;38158;53.338;6.514;2023-09-18T13:42:35;21.40;99.90
52181;DHT22;38158;53.338;6.514;2023-09-18T13:45:04;21.60;99.90
52181;DHT22;38158;53.338;6.514;2023-09-18T13:47:32;21.60;99.90
52181;DHT22;38158;53.338;6.514;2023-09-18T13:49:59;21.60;99.90
52181;DHT22;38158;53.338;6.514;2023-09-18T13:52:26;21.60;99.90
52181;DHT22;38158;53.338;6.514;2023-09-18T13:54:52;21.60;99.90
52181;DHT22;38158;53.338;6.514;2023-09-18T13:57:18;21.70;99.90
52181;DHT22;38158;53.338;6.514;2023-09-18T13:59:45;21.80;99.90
52181;DHT22;38158;53.338;6.514;2023-09-18T14:02:12;21.80;99.90
52181;DHT22;38158;53.338;6.514;2023-09-18T14:04:37;21.90;99.90
52181;DHT22;38158;53.338;6.514;2023-09-18T14:07:04;21.90;99.90
52181;DHT22;38158;53.338;6.514;2023-09-18T14:09:30;22.00;99.90
52181;DHT22;38158;53.338;6.514;2023-09-18T14:11:56;21.90;99.90
52181;DHT22;38158;53.338;6.514;2023-09-18T14:14:24;22.10;99.90
52181;DHT22;38158;53.338;6.514;2023-09-18T14:16:51;22.10;99.90
52181;DHT22;38158;53.338;6.514;2023-09-18T14:19:17;22.20;99.90
52181;DHT22;38158;53.338;6.514;2023-09-18T14:21:43;22.20;99.90
52181;DHT22;38158;53.338;6.514;2023-09-18T14:24:10;22.20;99.90
52181;DHT22;38158;53.338;6.514;2023-09-18T14:26:36;22.20;99.90
52181;DHT22;38158;53.338;6.514;2023-09-18T14:29:09;22.10;99.90
52181;DHT22;38158;53.338;6.514;2023-09-18T14:31:38;22.10;99.90
52181;DHT22;38158;53.338;6.514;2023-09-18T14:34:04;22.10;99.90
52181;DHT22;38158;53.338;6.514;2023-09-18T14:36:34;22.00;99.90
52181;DHT22;38158;53.338;6.514;2023-09-18T14:39:00;22.00;99.90
52181;DHT22;38158;53.338;6.514;2023-09-18T14:41:29;22.00;99.90
52181;DHT22;38158;53.338;6.514;2023-09-18T14:43:57;22.00;99.90
52181;DHT22;38158;53.338;6.514;2023-09-18T14:46:24;22.00;99.90
52181;DHT22;38158;53.338;6.514;2023-09-18T14:48:50;22.00;99.90
52181;DHT22;38158;53.338;6.514;2023-09-18T14:51:15;22.00;99.90
52181;DHT22;38158;53.338;6.514;2023-09-18T14:53:41;22.00;99.90
52181;DHT22;38158;53.338;6.514;2023-09-18T14:56:07;22.00;99.90
52181;DHT22;38158;53.338;6.514;2023-09-18T14:58:33;22.00;99.90
52181;DHT22;38158;53.338;6.514;2023-09-18T15:00:59;22.00;99.90
52181;DHT22;38158;53.338;6.514;2023-09-18T15:03:25;22.00;99.90
52181;DHT22;38158;53.338;6.514;2023-09-18T15:05:51;21.90;99.90
52181;DHT22;38158;53.338;6.514;2023-09-18T15:08:18;21.80;99.90
52181;DHT22;38158;53.338;6.514;2023-09-18T15:10:45;21.70;99.90
52181;DHT22;38158;53.338;6.514;2023-09-18T15:13:11;21.70;99.90
52181;DHT22;38158;53.338;6.514;2023-09-18T15:15:39;21.70;99.90
52181;DHT22;38158;53.338;6.514;2023-09-18T15:18:05;21.70;99.90
52181;DHT22;38158;53.338;6.514;2023-09-18T15:20:31;21.70;99.90
52181;DHT22;38158;53.338;6.514;2023-09-18T15:22:57;21.70;99.90
52181;DHT22;38158;53.338;6.514;2023-09-18T15:25:23;21.60;99.90
52181;DHT22;38158;53.338;6.514;2023-09-18T15:27:49;21.60;99.90
52181;DHT22;38158;53.338;6.514;2023-09-18T15:30:15;21.50;99.90
52181;DHT22;38158;53.338;6.514;2023-09-18T15:32:51;21.50;99.90
52181;DHT22;38158;53.338;6.514;2023-09-18T15:35:19;21.40;99.90
52181;DHT22;38158;53.338;6.514;2023-09-18T15:37:45;21.30;99.90
52181;DHT22;38158;53.338;6.514;2023-09-18T15:40:11;21.30;99.90